createdAt,value
2022-08-20T00:01:10.217Z,99.90
2022-08-20T00:03:41.089Z,99.90
2022-08-20T00:06:19.075Z,99.90
2022-08-20T00:08:46.472Z,99.90
2022-08-20T00:11:18.110Z,99.90
2022-08-20T00:13:49.777Z,99.90
2022-08-20T00:16:20.313Z,99.90
2022-08-20T00:18:47.811Z,99.90
2022-08-20T00:21:18.810Z,99.90
2022-08-20T00:23:49.130Z,99.90
2022-08-20T00:26:17.352Z,99.90
2022-08-20T00:28:44.208Z,99.90
2022-08-20T00:31:14.469Z,99.90
2022-08-20T00:33:41.409Z,99.90
2022-08-20T00:36:10.776Z,99.90
2022-08-20T00:38:40.810Z,99.90
2022-08-20T00:41:11.298Z,99.90
2022-08-20T00:43:45.287Z,99.90
2022-08-20T00:46:28.124Z,99.90
2022-08-20T00:48:58.697Z,99.90
2022-08-20T00:51:41.006Z,99.90
2022-08-20T00:54:34.125Z,99.90
2022-08-20T00:57:05.790Z,99.90
2022-08-20T00:59:34.975Z,99.90
2022-08-20T01:02:03.710Z,99.90
2022-08-20T01:04:35.225Z,99.90
2022-08-20T01:07:05.386Z,99.90
2022-08-20T01:09:58.061Z,99.90
2022-08-20T01:12:24.155Z,99.90
2022-08-20T01:14:51.195Z,99.90
2022-08-20T01:17:22.638Z,99.90
2022-08-20T01:19:57.676Z,99.90
2022-08-20T01:22:53.098Z,99.90
2022-08-20T01:25:46.825Z,99.90
2022-08-20T01:28:16.239Z,99.90
2022-08-20T01:30:43.348Z,99.90
2022-08-20T01:33:10.303Z,99.90
2022-08-20T01:35:42.445Z,99.90
2022-08-20T01:38:10.442Z,99.90
2022-08-20T01:40:52.550Z,99.90
2022-08-20T01:43:19.877Z,99.90
2022-08-20T01:45:49.936Z,99.90
2022-08-20T01:48:18.068Z,99.90
2022-08-20T01:51:02.088Z,99.90
2022-08-20T01:53:33.797Z,99.90
2022-08-20T01:56:03.100Z,99.90
2022-08-20T01:58:30.263Z,99.90
2022-08-20T02:00:58.083Z,99.90
2022-08-20T02:03:25.116Z,99.90
2022-08-20T02:05:53.486Z,99.90
2022-08-20T02:08:21.897Z,99.90
2022-08-20T02:10:49.302Z,99.90
2022-08-20T02:13:16.939Z,99.90
2022-08-20T02:15:43.909Z,99.90
2022-08-20T02:18:15.494Z,99.90
2022-08-20T02:20:43.598Z,99.90
2022-08-20T02:23:12.380Z,99.90
2022-08-20T02:25:42.067Z,99.90
2022-08-20T02:28:14.177Z,99.90
2022-08-20T02:30:46.325Z,99.90
2022-08-20T02:33:15.560Z,99.90
2022-08-20T02:35:45.821Z,99.90
2022-08-20T02:38:12.655Z,99.90
2022-08-20T02:40:40.509Z,99.90
2022-08-20T02:43:07.693Z,99.90
2022-08-20T02:45:37.152Z,99.90
2022-08-20T02:48:05.464Z,99.90
2022-08-20T02:50:32.467Z,99.90
2022-08-20T02:52:59.373Z,99.90
2022-08-20T02:55:27.784Z,99.90
2022-08-20T02:57:58.937Z,99.90
2022-08-20T03:00:27.463Z,99.90
2022-08-20T03:02:54.489Z,99.90
2022-08-20T03:05:21.319Z,99.90
2022-08-20T03:07:53.765Z,99.90
2022-08-20T03:10:29.927Z,99.90
2022-08-20T03:12:56.839Z,99.90
2022-08-20T03:15:23.894Z,99.90
2022-08-20T03:17:50.777Z,99.90
2022-08-20T03:20:17.660Z,99.90
2022-08-20T03:22:50.924Z,99.90
2022-08-20T03:25:17.889Z,99.90
2022-08-20T03:27:45.705Z,99.90
2022-08-20T03:30:16.009Z,99.90
2022-08-20T03:32:43.189Z,99.90
2022-08-20T03:35:13.495Z,99.90
2022-08-20T03:37:42.197Z,99.90
2022-08-20T03:40:19.452Z,99.90
2022-08-20T03:42:46.267Z,99.90
2022-08-20T03:45:16.050Z,99.90
2022-08-20T03:47:47.671Z,99.90
2022-08-20T03:50:23.022Z,99.90
2022-08-20T03:52:51.886Z,99.90
2022-08-20T03:55:20.264Z,99.90
2022-08-20T03:57:53.754Z,99.90
2022-08-20T04:00:28.072Z,99.90
2022-08-20T04:02:57.337Z,99.90
2022-08-20T04:05:29.269Z,99.90
2022-08-20T04:08:02.828Z,99.90
2022-08-20T04:10:31.007Z,99.90
2022-08-20T04:12:57.933Z,99.90
2022-08-20T04:15:24.805Z,99.90
2022-08-20T04:17:53.517Z,99.90
2022-08-20T04:20:23.966Z,99.90
2022-08-20T04:22:58.603Z,99.90
2022-08-20T04:25:26.387Z,99.90
2022-08-20T04:27:53.870Z,99.90
2022-08-20T04:30:23.390Z,99.90
2022-08-20T04:32:50.202Z,99.90
2022-08-20T04:35:18.642Z,99.90
2022-08-20T04:37:47.601Z,99.90
2022-08-20T04:40:37.518Z,99.90
2022-08-20T04:43:05.265Z,99.90
2022-08-20T04:45:33.298Z,99.90
2022-08-20T04:48:05.617Z,99.90
2022-08-20T04:50:37.035Z,99.90
2022-08-20T04:53:06.162Z,99.90
2022-08-20T04:55:34.445Z,99.90
2022-08-20T04:58:10.365Z,99.90
2022-08-20T05:00:38.484Z,99.90
2022-08-20T05:03:08.987Z,99.90
2022-08-20T05:05:35.796Z,99.90
2022-08-20T05:08:02.887Z,99.90
2022-08-20T05:10:30.359Z,99.90
2022-08-20T05:12:57.478Z,99.90
2022-08-20T05:15:25.976Z,99.90
2022-08-20T05:18:01.752Z,99.90
2022-08-20T05:20:31.232Z,99.90
2022-08-20T05:22:59.684Z,99.90
2022-08-20T05:25:30.645Z,99.90
2022-08-20T05:28:00.661Z,99.90
2022-08-20T05:30:34.308Z,99.90
2022-08-20T05:33:03.420Z,99.90
2022-08-20T05:35:33.263Z,99.90
2022-08-20T05:38:01.364Z,99.90
2022-08-20T05:40:28.650Z,99.90
2022-08-20T05:42:55.512Z,99.90
2022-08-20T05:45:22.331Z,99.90
2022-08-20T05:47:49.709Z,99.90
2022-08-20T05:50:23.654Z,99.90
2022-08-20T05:52:50.784Z,99.90
2022-08-20T05:55:17.790Z,99.90
2022-08-20T05:57:45.687Z,99.90
2022-08-20T06:00:14.710Z,99.90
2022-08-20T06:03:00.586Z,99.90
2022-08-20T06:05:27.548Z,99.90
2022-08-20T06:07:54.923Z,99.90
2022-08-20T06:10:35.268Z,99.90
2022-08-20T06:13:03.095Z,99.90
2022-08-20T06:15:32.166Z,99.90
2022-08-20T06:17:59.397Z,99.90
2022-08-20T06:20:28.951Z,99.90
2022-08-20T06:22:56.209Z,99.90
2022-08-20T06:25:23.185Z,99.90
2022-08-20T06:27:50.129Z,99.90
2022-08-20T06:30:17.647Z,99.90
2022-08-20T06:32:44.519Z,99.90
2022-08-20T06:35:11.826Z,99.90
2022-08-20T06:37:40.406Z,99.90
2022-08-20T06:40:14.707Z,99.90
2022-08-20T06:42:48.219Z,99.90
2022-08-20T06:45:24.463Z,99.90
2022-08-20T06:47:53.325Z,99.90
2022-08-20T06:50:31.426Z,99.90
2022-08-20T06:52:59.784Z,99.90
2022-08-20T06:55:26.631Z,99.90
2022-08-20T06:58:01.695Z,99.90
2022-08-20T07:00:31.448Z,99.90
2022-08-20T07:03:00.478Z,99.90
2022-08-20T07:05:33.359Z,99.90
2022-08-20T07:08:00.989Z,99.90
2022-08-20T07:10:30.310Z,99.90
2022-08-20T07:12:59.428Z,99.90
2022-08-20T07:15:27.338Z,99.90
2022-08-20T07:18:01.379Z,99.90
2022-08-20T07:20:29.260Z,99.90
2022-08-20T07:22:56.241Z,99.90
2022-08-20T07:25:23.242Z,99.90
2022-08-20T07:27:51.365Z,99.90
2022-08-20T07:30:56.829Z,99.90
2022-08-20T07:33:26.445Z,99.90
2022-08-20T07:35:59.284Z,99.90
2022-08-20T07:38:27.703Z,99.90
2022-08-20T07:40:57.893Z,99.90
2022-08-20T07:43:25.697Z,99.90
2022-08-20T07:45:56.409Z,99.90
2022-08-20T07:48:31.966Z,99.90
2022-08-20T07:51:01.933Z,99.90
2022-08-20T07:53:33.552Z,99.90
2022-08-20T07:56:11.532Z,99.90
2022-08-20T07:58:43.538Z,99.90
2022-08-20T08:01:11.427Z,99.90
2022-08-20T08:03:40.628Z,99.90
2022-08-20T08:06:29.136Z,99.90
2022-08-20T08:09:09.824Z,99.90
2022-08-20T08:11:40.042Z,99.90
2022-08-20T08:14:11.564Z,99.90
2022-08-20T08:16:39.207Z,99.90
2022-08-20T08:19:11.857Z,99.90
2022-08-20T08:21:39.013Z,99.90
2022-08-20T08:24:05.916Z,99.90
2022-08-20T08:26:34.717Z,99.90
2022-08-20T08:29:02.781Z,99.90
2022-08-20T08:31:29.636Z,99.90
2022-08-20T08:33:56.526Z,99.90
2022-08-20T08:36:23.365Z,99.90
2022-08-20T08:38:50.617Z,99.90
2022-08-20T08:41:19.448Z,99.90
2022-08-20T08:43:49.914Z,99.90
2022-08-20T08:46:22.628Z,99.90
2022-08-20T08:48:53.441Z,99.90
2022-08-20T08:51:30.014Z,99.90
2022-08-20T08:53:57.436Z,99.90
2022-08-20T08:56:28.183Z,96.80
2022-08-20T08:59:00.459Z,93.00
2022-08-20T09:01:55.096Z,92.10
2022-08-20T09:04:17.756Z,92.10
2022-08-20T09:06:53.451Z,89.50
2022-08-20T09:09:33.959Z,86.20
2022-08-20T09:12:10.612Z,80.50
2022-08-20T09:14:38.202Z,77.40
2022-08-20T09:17:05.840Z,75.00
2022-08-20T09:19:32.841Z,73.10
2022-08-20T09:22:06.357Z,70.50
2022-08-20T09:24:33.224Z,67.70
2022-08-20T09:27:00.068Z,63.90
2022-08-20T09:29:27.082Z,63.30
2022-08-20T09:32:11.835Z,62.30
2022-08-20T09:34:46.631Z,61.40
2022-08-20T09:37:14.426Z,59.60
2022-08-20T09:39:41.810Z,58.40
2022-08-20T09:42:24.177Z,57.10
2022-08-20T09:44:51.374Z,57.30
2022-08-20T09:47:18.613Z,56.20
2022-08-20T09:49:45.995Z,56.30
2022-08-20T09:52:26.865Z,56.30
2022-08-20T09:54:58.645Z,56.30
2022-08-20T09:57:26.970Z,56.20
2022-08-20T09:59:58.584Z,55.70
2022-08-20T10:02:26.003Z,55.00
2022-08-20T10:04:52.908Z,54.60
2022-08-20T10:07:19.851Z,53.30
2022-08-20T10:09:48.635Z,53.70
2022-08-20T10:12:15.520Z,53.90
2022-08-20T10:14:43.179Z,53.30
2022-08-20T10:17:10.336Z,53.00
2022-08-20T10:19:37.371Z,52.40
2022-08-20T10:22:04.593Z,52.10
2022-08-20T10:24:31.608Z,50.30
2022-08-20T10:27:00.440Z,49.50
2022-08-20T10:29:28.457Z,50.50
2022-08-20T10:31:57.019Z,48.90
2022-08-20T10:34:25.010Z,48.80
2022-08-20T10:36:52.291Z,49.00
2022-08-20T10:39:19.158Z,48.10
2022-08-20T10:41:45.985Z,48.90
2022-08-20T10:44:12.800Z,47.80
2022-08-20T10:46:39.717Z,47.70
2022-08-20T10:49:06.621Z,47.30
2022-08-20T10:51:33.461Z,48.70
2022-08-20T10:54:00.581Z,48.20
2022-08-20T10:56:27.525Z,48.00
2022-08-20T10:58:54.377Z,47.30
2022-08-20T11:01:31.664Z,47.40
2022-08-20T11:04:00.899Z,46.90
2022-08-20T11:06:27.902Z,46.90
2022-08-20T11:08:56.889Z,46.30
2022-08-20T11:11:24.156Z,45.30
2022-08-20T11:13:51.026Z,45.30
2022-08-20T11:16:17.919Z,44.90
2022-08-20T11:18:47.350Z,43.80
2022-08-20T11:21:14.898Z,44.60
2022-08-20T11:23:41.713Z,44.90
2022-08-20T11:26:09.164Z,43.40
2022-08-20T11:28:36.013Z,45.40
2022-08-20T11:31:02.893Z,46.50
2022-08-20T11:33:29.813Z,49.20
2022-08-20T11:35:57.168Z,50.80
2022-08-20T11:38:24.136Z,50.80
2022-08-20T11:40:51.055Z,50.00
2022-08-20T11:43:18.401Z,50.80
2022-08-20T11:45:48.254Z,52.30
2022-08-20T11:48:15.245Z,53.00
2022-08-20T11:50:42.082Z,52.40
2022-08-20T11:53:08.956Z,51.80
2022-08-20T11:55:36.315Z,52.40
2022-08-20T11:58:04.229Z,53.70
2022-08-20T12:00:33.882Z,56.30
2022-08-20T12:03:05.002Z,55.30
2022-08-20T12:05:32.588Z,54.10
2022-08-20T12:08:01.461Z,54.10
2022-08-20T12:10:29.114Z,53.40
2022-08-20T12:12:57.031Z,53.20
2022-08-20T12:15:25.222Z,51.50
2022-08-20T12:17:52.300Z,48.90
2022-08-20T12:20:19.564Z,48.80
2022-08-20T12:22:46.471Z,47.50
2022-08-20T12:25:13.820Z,46.40
2022-08-20T12:27:41.081Z,46.80
2022-08-20T12:30:14.536Z,47.70
2022-08-20T12:32:42.482Z,46.80
2022-08-20T12:35:10.807Z,46.80
2022-08-20T12:37:38.590Z,46.10
2022-08-20T12:40:09.231Z,46.90
2022-08-20T12:42:36.575Z,46.20
2022-08-20T12:45:04.307Z,45.70
2022-08-20T12:47:33.814Z,44.20
2022-08-20T12:50:07.821Z,43.00
2022-08-20T12:52:35.421Z,44.10
2022-08-20T12:55:04.054Z,45.90
2022-08-20T12:57:41.742Z,47.90
2022-08-20T13:00:16.585Z,49.80
2022-08-20T13:02:43.494Z,50.40
2022-08-20T13:05:11.659Z,52.60
2022-08-20T13:07:39.222Z,54.40
2022-08-20T13:10:08.486Z,55.50
2022-08-20T13:12:35.911Z,56.40
2022-08-20T13:15:02.998Z,57.50
2022-08-20T13:17:39.005Z,57.10
2022-08-20T13:20:15.433Z,55.20
2022-08-20T13:22:42.649Z,52.30
2022-08-20T13:25:10.484Z,50.20
2022-08-20T13:27:40.570Z,48.30
2022-08-20T13:30:09.475Z,48.10
2022-08-20T13:32:36.536Z,47.40
2022-08-20T13:35:03.852Z,47.80
2022-08-20T13:37:30.997Z,47.50
2022-08-20T13:39:59.708Z,47.20
2022-08-20T13:42:27.920Z,46.60
2022-08-20T13:44:55.207Z,46.10
2022-08-20T13:47:30.126Z,46.50
2022-08-20T13:50:00.415Z,47.30
2022-08-20T13:52:28.724Z,48.50
2022-08-20T13:54:55.585Z,48.70
2022-08-20T13:57:23.829Z,47.40
2022-08-20T13:59:52.640Z,45.90
2022-08-20T14:02:20.573Z,46.10
2022-08-20T14:04:48.474Z,45.90
2022-08-20T14:07:27.716Z,45.60
2022-08-20T14:10:06.496Z,47.20
2022-08-20T14:12:33.599Z,49.00
2022-08-20T14:15:00.576Z,50.30
2022-08-20T14:17:30.206Z,49.80
2022-08-20T14:20:04.678Z,50.40
2022-08-20T14:22:31.668Z,51.50
2022-08-20T14:25:02.665Z,52.50
2022-08-20T14:27:31.847Z,52.10
2022-08-20T14:29:59.341Z,51.90
2022-08-20T14:32:27.349Z,52.70
2022-08-20T14:34:56.630Z,52.00
2022-08-20T14:37:27.964Z,52.20
2022-08-20T14:39:58.827Z,52.00
2022-08-20T14:42:28.332Z,50.50
2022-08-20T14:44:56.430Z,50.40
2022-08-20T14:47:26.064Z,50.00
2022-08-20T14:49:54.979Z,50.20
2022-08-20T14:52:23.612Z,50.30
2022-08-20T14:54:55.946Z,50.90
2022-08-20T14:57:23.395Z,51.30
2022-08-20T14:59:53.443Z,51.70
2022-08-20T15:02:20.329Z,52.10
2022-08-20T15:04:52.270Z,52.20
2022-08-20T15:07:27.780Z,52.30
2022-08-20T15:09:55.297Z,52.30
2022-08-20T15:12:22.656Z,52.20
2022-08-20T15:14:49.807Z,53.30
2022-08-20T15:17:25.932Z,54.10
2022-08-20T15:19:53.727Z,55.00
2022-08-20T15:22:21.969Z,56.30
2022-08-20T15:24:48.902Z,57.00
2022-08-20T15:27:22.596Z,57.50
2022-08-20T15:29:51.155Z,57.80
2022-08-20T15:32:19.190Z,58.80
2022-08-20T15:34:47.093Z,58.40
2022-08-20T15:37:19.548Z,58.40
2022-08-20T15:39:47.896Z,58.60
2022-08-20T15:42:15.654Z,58.60
2022-08-20T15:44:43.540Z,59.00
2022-08-20T15:47:16.793Z,59.30
2022-08-20T15:49:44.786Z,60.30
2022-08-20T15:52:13.592Z,61.80
2022-08-20T15:54:41.348Z,62.20
2022-08-20T15:57:12.294Z,62.80
2022-08-20T16:00:13.899Z,62.90
2022-08-20T16:02:54.490Z,63.40
2022-08-20T16:05:33.240Z,64.40
2022-08-20T16:08:18.747Z,64.90
2022-08-20T16:11:31.136Z,64.40
2022-08-20T16:14:10.772Z,62.30
2022-08-20T16:16:46.920Z,62.10
2022-08-20T16:19:21.966Z,60.10
2022-08-20T16:21:49.941Z,60.80
2022-08-20T16:24:17.509Z,64.00
2022-08-20T16:26:50.953Z,63.50
2022-08-20T16:29:54.768Z,63.80
2022-08-20T16:32:31.176Z,64.40
2022-08-20T16:35:07.795Z,65.20
2022-08-20T16:37:38.230Z,63.40
2022-08-20T16:40:28.315Z,64.70
2022-08-20T16:42:59.231Z,66.30
2022-08-20T16:45:30.160Z,68.10
2022-08-20T16:48:04.328Z,68.70
2022-08-20T16:50:53.603Z,69.70
2022-08-20T16:53:22.543Z,70.70
2022-08-20T16:55:49.652Z,71.40
2022-08-20T16:58:16.724Z,71.40
2022-08-20T17:00:45.250Z,72.20
2022-08-20T17:03:39.256Z,72.90
2022-08-20T17:06:31.303Z,73.20
2022-08-20T17:08:58.314Z,74.30
2022-08-20T17:11:32.520Z,74.40
2022-08-20T17:14:19.535Z,75.10
2022-08-20T17:16:50.717Z,77.00
2022-08-20T17:19:27.093Z,76.50
2022-08-20T17:21:55.005Z,76.70
2022-08-20T17:24:29.970Z,77.50
2022-08-20T17:27:10.060Z,78.10
2022-08-20T17:29:50.120Z,78.50
2022-08-20T17:32:29.054Z,79.10
2022-08-20T17:35:01.394Z,79.80
2022-08-20T17:37:33.379Z,80.30
2022-08-20T17:40:14.482Z,80.80
2022-08-20T17:42:58.462Z,81.60
2022-08-20T17:45:31.632Z,82.20
2022-08-20T17:48:00.054Z,82.50
2022-08-20T17:50:42.258Z,83.10
2022-08-20T17:53:33.293Z,83.20
2022-08-20T17:56:08.559Z,84.20
2022-08-20T17:58:54.046Z,85.00
2022-08-20T18:01:23.412Z,84.70
2022-08-20T18:03:52.030Z,85.10
2022-08-20T18:06:31.050Z,86.70
2022-08-20T18:09:07.164Z,87.80
2022-08-20T18:11:43.198Z,88.90
2022-08-20T18:14:43.091Z,89.60
2022-08-20T18:17:32.010Z,90.40
2022-08-20T18:20:05.055Z,91.20
2022-08-20T18:22:45.766Z,91.90
2022-08-20T18:25:27.796Z,92.50
2022-08-20T18:28:02.105Z,93.30
2022-08-20T18:30:29.199Z,94.00
2022-08-20T18:33:08.654Z,94.80
2022-08-20T18:35:45.768Z,95.80
2022-08-20T18:38:42.125Z,96.60
2022-08-20T18:41:26.197Z,97.60
2022-08-20T18:44:14.957Z,98.70
2022-08-20T18:46:59.784Z,99.70
2022-08-20T18:49:37.413Z,99.90
2022-08-20T18:52:14.994Z,99.90
2022-08-20T18:54:50.311Z,99.90
2022-08-20T18:57:24.771Z,99.90
2022-08-20T19:00:12.651Z,99.90
2022-08-20T19:03:07.792Z,99.90
2022-08-20T19:05:53.415Z,99.90
2022-08-20T19:08:21.015Z,99.90
2022-08-20T19:11:14.612Z,99.90
2022-08-20T19:13:59.643Z,99.90
2022-08-20T19:16:39.212Z,99.90
2022-08-20T19:19:18.331Z,99.90
2022-08-20T19:21:45.511Z,99.90
2022-08-20T19:24:16.937Z,99.90
2022-08-20T19:26:52.375Z,99.90
2022-08-20T19:29:27.147Z,99.90
2022-08-20T19:31:59.438Z,99.90
2022-08-20T19:34:27.360Z,99.90
2022-08-20T19:37:27.905Z,99.90
2022-08-20T19:40:05.219Z,99.90
2022-08-20T19:42:33.811Z,99.90
2022-08-20T19:45:08.173Z,99.90
2022-08-20T19:47:43.989Z,99.90
2022-08-20T19:50:22.377Z,99.90
2022-08-20T19:53:12.325Z,99.90
2022-08-20T19:55:40.818Z,99.90
2022-08-20T19:58:16.897Z,99.90
2022-08-20T20:00:54.144Z,99.90
2022-08-20T20:03:27.011Z,99.90
2022-08-20T20:06:16.863Z,99.90
2022-08-20T20:08:55.655Z,99.90
2022-08-20T20:11:45.233Z,99.90
2022-08-20T20:14:14.937Z,99.90
2022-08-20T20:16:42.892Z,99.90
2022-08-20T20:19:28.483Z,99.90
2022-08-20T20:22:19.171Z,99.90
2022-08-20T20:24:56.714Z,99.90
2022-08-20T20:27:26.592Z,99.90
2022-08-20T20:30:02.939Z,99.90
2022-08-20T20:32:30.677Z,99.90
2022-08-20T20:35:00.819Z,99.90
2022-08-20T20:37:48.954Z,99.90
2022-08-20T20:40:25.473Z,99.90
2022-08-20T20:43:08.150Z,99.90
2022-08-20T20:45:41.017Z,99.90
2022-08-20T20:48:24.482Z,99.90
2022-08-20T20:50:56.422Z,99.90
2022-08-20T20:53:53.022Z,99.90
2022-08-20T20:56:56.224Z,99.90
2022-08-20T20:59:23.089Z,99.90
2022-08-20T21:01:50.718Z,99.90
2022-08-20T21:04:20.088Z,99.90
2022-08-20T21:06:47.766Z,99.90
2022-08-20T21:09:15.211Z,99.90
2022-08-20T21:11:42.049Z,99.90
2022-08-20T21:14:08.849Z,99.90
2022-08-20T21:16:35.835Z,99.90
2022-08-20T21:19:05.714Z,99.90
2022-08-20T21:21:32.946Z,99.90
2022-08-20T21:23:59.981Z,99.90
2022-08-20T21:26:28.158Z,99.90
2022-08-20T21:28:55.119Z,99.90
2022-08-20T21:31:25.486Z,99.90
2022-08-20T21:33:52.498Z,99.90
2022-08-20T21:36:19.314Z,99.90
2022-08-20T21:38:46.148Z,99.90
2022-08-20T21:41:14.625Z,99.90
2022-08-20T21:43:42.810Z,99.90
2022-08-20T21:46:12.733Z,99.90
2022-08-20T21:48:40.218Z,99.90
2022-08-20T21:51:07.664Z,99.90
2022-08-20T21:53:34.528Z,99.90
2022-08-20T21:56:01.906Z,99.90
2022-08-20T21:58:28.778Z,99.90
2022-08-20T22:01:00.152Z,99.90
2022-08-20T22:03:31.239Z,99.90
2022-08-20T22:05:59.365Z,99.90
2022-08-20T22:08:28.395Z,99.90
2022-08-20T22:10:57.743Z,99.90
2022-08-20T22:13:31.286Z,99.90
2022-08-20T22:15:59.633Z,99.90
2022-08-20T22:18:26.486Z,99.90
2022-08-20T22:20:53.833Z,99.90
2022-08-20T22:23:21.118Z,99.90
2022-08-20T22:25:48.888Z,99.90
2022-08-20T22:28:16.596Z,99.90
2022-08-20T22:30:43.673Z,99.90
2022-08-20T22:33:14.245Z,99.90
2022-08-20T22:35:49.812Z,99.90
2022-08-20T22:38:17.438Z,99.90
2022-08-20T22:40:44.707Z,99.90
2022-08-20T22:43:12.675Z,99.90
2022-08-20T22:45:41.585Z,99.90
2022-08-20T22:48:09.624Z,99.90
2022-08-20T22:50:37.681Z,99.90
2022-08-20T22:53:04.797Z,99.90
2022-08-20T22:55:31.619Z,99.90
2022-08-20T22:57:58.779Z,99.90
2022-08-20T23:00:25.964Z,99.90
2022-08-20T23:02:55.875Z,99.90
2022-08-20T23:05:25.617Z,99.90
2022-08-20T23:07:54.419Z,99.90
2022-08-20T23:10:22.689Z,99.90
2022-08-20T23:12:49.611Z,99.90
2022-08-20T23:15:16.502Z,99.90
2022-08-20T23:17:43.764Z,99.90
2022-08-20T23:20:13.641Z,99.90
2022-08-20T23:22:40.469Z,99.90
2022-08-20T23:25:09.616Z,99.90
2022-08-20T23:27:49.157Z,99.90
2022-08-20T23:30:18.789Z,99.90
2022-08-20T23:32:46.037Z,99.90
2022-08-20T23:35:13.364Z,99.90
2022-08-20T23:37:48.927Z,99.90
2022-08-20T23:40:17.207Z,99.90
2022-08-20T23:42:44.427Z,99.90
2022-08-20T23:45:12.923Z,99.90
2022-08-20T23:47:40.343Z,99.90
2022-08-20T23:50:10.826Z,99.90
2022-08-20T23:52:37.661Z,99.90
2022-08-20T23:55:05.124Z,99.90
2022-08-20T23:57:32.168Z,99.90
2022-08-20T23:59:59.498Z,99.90
